Time;durP1;ratioP1;P1;durP2;ratioP2;P2;SDS_P1;SDS_P2;PMS_P1;PMS_P2;Temp;Humidity;BMP_temperature;BMP_pressure;BME280_temperature;BME280_humidity;BME280_pressure;Samples;Min_cycle;Max_cycle;Signal;HPM_P1;HPM_P2
2022/12/18 00:01:23;;;;;;;;;;;;;;;15.76;71.71;101720.88;7403206;19;1008;-66
2022/12/18 00:03:52;;;;;;;;;;;;;;;15.76;71.82;101710.19;7401954;19;1842;-66
2022/12/18 00:06:24;;;;;;;;;;;;;;;15.78;71.42;101710.97;7402762;19;985;-66
2022/12/18 00:08:52;;;;;;;;;;;;;;;15.79;71.68;101720.66;7402635;19;1013;-66
2022/12/18 00:11:21;;;;;;;;;;;;;;;15.79;71.29;101710.00;7402640;19;921;-66
2022/12/18 00:13:50;;;;;;;;;;;;;;;15.81;71.31;101733.91;7402833;19;1010;-65
2022/12/18 00:16:21;;;;;;;;;;;;;;;15.76;71.36;101712.03;7401033;19;892;-66
2022/12/18 00:18:49;;;;;;;;;;;;;;;15.75;71.48;101727.13;7402258;19;944;-66
2022/12/18 00:21:18;;;;;;;;;;;;;;;15.77;71.42;101733.25;7402627;19;993;-66
2022/12/18 00:23:50;;;;;;;;;;;;;;;15.76;71.61;101736.88;7401462;19;1846;-66
2022/12/18 00:26:19;;;;;;;;;;;;;;;15.73;71.51;101737.03;7402021;19;1079;-66
2022/12/18 00:28:48;;;;;;;;;;;;;;;15.75;71.34;101744.97;7401929;19;1067;-66
2022/12/18 00:31:17;;;;;;;;;;;;;;;15.76;71.48;101752.03;7402383;19;949;-66
2022/12/18 00:33:46;;;;;;;;;;;;;;;15.74;71.47;101757.44;7402024;19;964;-66
2022/12/18 00:36:17;;;;;;;;;;;;;;;15.74;71.29;101764.56;7402250;19;1006;-66
2022/12/18 00:38:45;;;;;;;;;;;;;;;15.76;71.35;101774.22;7400248;19;1340;-66
2022/12/18 00:42:55;;;;;;;;;;;;;;;15.74;71.62;101770.78;7400357;19;1372;-66
2022/12/18 00:44:04;;;;;;;;;;;;;;;15.69;71.36;101773.66;7400607;19;1864;-66
2022/12/18 00:46:32;;;;;;;;;;;;;;;15.70;71.47;101780.72;7399281;19;989;-66
2022/12/18 00:49:01;;;;;;;;;;;;;;;15.69;71.52;101780.81;7401381;19;1000;-66
2022/12/18 00:51:29;;;;;;;;;;;;;;;15.67;71.32;101788.88;7401457;19;1005;-66
2022/12/18 00:53:58;;;;;;;;;;;;;;;15.67;71.41;101770.22;7401800;19;1019;-66
2022/12/18 00:56:28;;;;;;;;;;;;;;;15.66;71.79;101789.00;7401637;19;983;-66
2022/12/18 00:58:57;;;;;;;;;;;;;;;15.64;71.46;101786.41;7401173;19;1112;-66
2022/12/18 01:01:25;;;;;;;;;;;;;;;15.66;71.34;101794.34;7399271;19;1475;-66
2022/12/18 01:03:53;;;;;;;;;;;;;;;15.68;71.39;101789.75;7400416;19;1868;-66
2022/12/18 01:06:22;;;;;;;;;;;;;;;15.66;71.55;101789.00;7400987;19;1044;-66
2022/12/18 01:08:50;;;;;;;;;;;;;;;15.69;71.35;101794.13;7400965;19;1019;-66
2022/12/18 01:11:20;;;;;;;;;;;;;;;15.65;71.24;101797.94;7400894;19;985;-66
2022/12/18 01:13:51;;;;;;;;;;;;;;;15.68;71.39;101797.75;7401051;19;998;-66
2022/12/18 01:16:20;;;;;;;;;;;;;;;15.68;71.44;101798.63;7401209;19;1012;-66
2022/12/18 01:18:48;;;;;;;;;;;;;;;15.68;71.19;101805.75;7399638;19;996;-66
2022/12/18 01:21:18;;;;;;;;;;;;;;;15.66;71.23;101805.00;7398732;19;962;-66
2022/12/18 01:23:46;;;;;;;;;;;;;;;15.65;71.21;101813.94;7400330;19;1838;-66
2022/12/18 01:26:15;;;;;;;;;;;;;;;15.65;71.34;101808.59;7399656;19;1028;-66
2022/12/18 01:28:44;;;;;;;;;;;;;;;15.65;71.44;101808.59;7400334;19;1071;-66
2022/12/18 01:31:19;;;;;;;;;;;;;;;15.66;71.12;101837.84;7400092;19;956;-66
2022/12/18 01:33:47;;;;;;;;;;;;;;;15.65;71.39;101819.25;7400232;19;963;-66
2022/12/18 01:36:20;;;;;;;;;;;;;;;15.65;71.18;101813.94;7399948;19;987;-66
2022/12/18 01:38:49;;;;;;;;;;;;;;;15.69;71.33;101826.13;7397454;19;1477;-66
2022/12/18 01:41:18;;;;;;;;;;;;;;;15.65;71.51;101819.25;7399390;19;932;-66
2022/12/18 01:43:48;;;;;;;;;;;;;;;15.63;71.19;101826.50;7399448;19;1856;-66
2022/12/18 01:46:19;;;;;;;;;;;;;;;15.60;71.40;101838.19;7400475;19;986;-66
2022/12/18 01:48:49;;;;;;;;;;;;;;;15.60;71.37;101821.34;7399977;19;927;-66
2022/12/18 01:51:18;;;;;;;;;;;;;;;15.64;71.21;101852.22;7399462;19;1071;-66
2022/12/18 01:53:46;;;;;;;;;;;;;;;15.61;71.44;101834.56;7400053;19;936;-66
2022/12/18 01:56:16;;;;;;;;;;;;;;;15.61;71.34;101823.91;7400502;19;993;-66
2022/12/18 01:58:51;;;;;;;;;;;;;;;15.60;71.29;101845.34;7407510;19;1006;-66
2022/12/18 02:01:23;;;;;;;;;;;;;;;15.59;71.28;101838.28;7406890;19;1035;-66
2022/12/18 02:03:51;;;;;;;;;;;;;;;15.58;71.33;101829.44;7406733;19;1853;-66
2022/12/18 02:06:22;;;;;;;;;;;;;;;15.58;71.24;101828.53;7406731;19;988;-66
2022/12/18 02:08:56;;;;;;;;;;;;;;;15.55;71.12;101834.06;7407058;19;911;-66
2022/12/18 02:11:30;;;;;;;;;;;;;;;15.59;71.16;101846.28;7407107;19;982;-66
2022/12/18 02:14:03;;;;;;;;;;;;;;;15.56;71.03;101838.44;7404269;19;886;-66
2022/12/18 02:16:38;;;;;;;;;;;;;;;15.58;71.34;101849.88;7406337;19;980;-66
2022/12/18 02:19:19;;;;;;;;;;;;;;;15.58;71.34;101845.41;7404165;19;927;-66
2022/12/18 02:21:51;;;;;;;;;;;;;;;15.60;70.85;101850.69;7406292;19;1075;-66
2022/12/18 02:24:23;;;;;;;;;;;;;;;15.61;71.15;101865.72;7405673;19;1857;-66
2022/12/18 02:26:57;;;;;;;;;;;;;;;15.61;70.88;101858.56;7406478;19;976;-66
2022/12/18 02:29:28;;;;;;;;;;;;;;;15.60;70.78;101858.69;7405836;19;1263;-66
2022/12/18 02:31:59;;;;;;;;;;;;;;;15.56;71.03;101870.44;7406301;19;947;-66
2022/12/18 02:34:29;;;;;;;;;;;;;;;15.55;70.99;101882.06;7406292;19;1003;-66
2022/12/18 02:36:58;;;;;;;;;;;;;;;15.55;71.22;101890.06;7405057;19;1450;-66
2022/12/18 02:39:29;;;;;;;;;;;;;;;15.56;71.31;101897.09;7406051;19;976;-66
2022/12/18 02:42:02;;;;;;;;;;;;;;;15.53;70.93;101892.78;7405593;19;1020;-67
2022/12/18 02:44:30;;;;;;;;;;;;;;;15.56;71.12;101897.09;7404585;19;1854;-66
2022/12/18 02:46:58;;;;;;;;;;;;;;;15.52;71.08;101878.63;7405545;19;989;-66
2022/12/18 02:49:33;;;;;;;;;;;;;;;15.51;70.95;101892.88;7405691;19;931;-66
2022/12/18 02:52:07;;;;;;;;;;;;;;;15.51;71.15;101903.53;7403322;19;1464;-66
2022/12/18 02:54:52;;;;;;;;;;;;;;;15.51;71.16;101914.19;7405562;19;974;-66
2022/12/18 02:57:27;;;;;;;;;;;;;;;15.51;71.03;101906.19;7405147;19;980;-66
2022/12/18 03:00:01;;;;;;;;;;;;;;;15.50;70.98;101908.97;7404193;19;1039;-66
2022/12/18 03:02:33;;;;;;;;;;;;;;;15.51;71.10;101932.00;7407660;19;1402;-66
2022/12/18 03:05:03;;;;;;;;;;;;;;;15.49;71.03;101918.75;7403502;19;1862;-66
2022/12/18 03:07:37;;;;;;;;;;;;;;;15.50;71.02;101939.16;7404056;19;953;-66
2022/12/18 03:10:08;;;;;;;;;;;;;;;15.49;70.95;101936.56;7404271;19;986;-66
2022/12/18 03:12:43;;;;;;;;;;;;;;;15.47;71.22;101928.66;7403947;19;972;-65
2022/12/18 03:15:12;;;;;;;;;;;;;;;15.50;70.99;101947.16;7404483;19;949;-66
2022/12/18 03:17:43;;;;;;;;;;;;;;;15.48;70.96;101945.53;7404433;19;1043;-66
2022/12/18 03:20:14;;;;;;;;;;;;;;;15.48;70.82;101967.69;7404771;19;988;-66
2022/12/18 03:22:45;;;;;;;;;;;;;;;15.48;70.78;101965.03;7402555;19;1396;-66
2022/12/18 03:25:15;;;;;;;;;;;;;;;15.50;70.81;101957.81;7402805;19;1849;-66
2022/12/18 03:27:49;;;;;;;;;;;;;;;15.48;70.78;101965.03;7404071;19;1067;-66
2022/12/18 03:30:18;;;;;;;;;;;;;;;15.47;70.68;101968.63;7403914;19;981;-66
2022/12/18 03:32:49;;;;;;;;;;;;;;;15.48;70.89;101967.69;7404343;19;931;-66
2022/12/18 03:35:21;;;;;;;;;;;;;;;15.44;71.03;101965.28;7403827;19;1067;-66
2022/12/18 03:37:49;;;;;;;;;;;;;;;15.45;71.08;101983.84;7401531;19;1374;-66
2022/12/18 03:40:18;;;;;;;;;;;;;;;15.45;70.81;101973.19;7403482;19;1013;-66
2022/12/18 03:42:52;;;;;;;;;;;;;;;15.45;70.89;101981.19;7400543;19;1364;-66
2022/12/18 03:45:23;;;;;;;;;;;;;;;15.44;71.04;101991.94;7402475;19;1856;-66
2022/12/18 03:47:56;;;;;;;;;;;;;;;15.40;71.17;101985.03;7403399;19;997;-66
2022/12/18 03:50:30;;;;;;;;;;;;;;;15.43;71.04;101990.22;7403704;19;919;-66
2022/12/18 03:53:00;;;;;;;;;;;;;;;15.43;71.05;102000.88;7403634;19;919;-66
2022/12/18 03:55:30;;;;;;;;;;;;;;;15.43;71.00;101999.06;7403099;19;986;-66
2022/12/18 03:58:02;;;;;;;;;;;;;;;15.46;70.71;102004.25;7404710;19;1008;-66
2022/12/18 04:00:31;;;;;;;;;;;;;;;15.44;70.82;102003.47;7403310;19;932;-66
2022/12/18 04:03:03;;;;;;;;;;;;;;;15.39;71.01;102008.16;7403225;19;1021;-66
2022/12/18 04:05:32;;;;;;;;;;;;;;;15.43;70.80;102025.72;7401517;19;1852;-66
2022/12/18 04:08:01;;;;;;;;;;;;;;;15.41;70.80;102022.28;7402727;19;1000;-66
2022/12/18 04:10:29;;;;;;;;;;;;;;;15.42;70.82;102026.69;7402606;19;996;-66
2022/12/18 04:12:58;;;;;;;;;;;;;;;15.40;71.04;102025.91;7402705;19;921;-66
2022/12/18 04:15:29;;;;;;;;;;;;;;;15.41;70.70;102018.75;7402437;19;1000;-66
2022/12/18 04:17:57;;;;;;;;;;;;;;;15.40;70.93;102027.69;7402765;19;1016;-66
2022/12/18 04:20:26;;;;;;;;;;;;;;;15.39;70.95;102016.16;7403206;19;1356;-66
2022/12/18 04:22:54;;;;;;;;;;;;;;;15.40;70.84;102009.03;7402339;19;1017;-66
2022/12/18 04:25:22;;;;;;;;;;;;;;;15.38;70.71;102027.78;7401183;19;1850;-66
2022/12/18 04:27:51;;;;;;;;;;;;;;;15.40;70.88;102036.56;7402166;19;996;-66
2022/12/18 04:30:19;;;;;;;;;;;;;;;15.38;70.69;102035.78;7401787;19;1088;-66
2022/12/18 04:32:50;;;;;;;;;;;;;;;15.38;70.71;102041.13;7400700;19;1380;-66
2022/12/18 04:35:18;;;;;;;;;;;;;;;15.36;70.85;102043.00;7402390;19;1012;-65
2022/12/18 04:37:47;;;;;;;;;;;;;;;15.36;70.88;102043.00;7400559;19;1395;-66
2022/12/18 04:40:15;;;;;;;;;;;;;;;15.37;70.94;102049.19;7401735;19;956;-65
2022/12/18 04:42:43;;;;;;;;;;;;;;;15.38;70.88;102057.09;7401669;19;1055;-66
2022/12/18 04:45:12;;;;;;;;;;;;;;;15.37;70.70;102065.19;7401347;19;1854;-66
2022/12/18 04:47:40;;;;;;;;;;;;;;;15.33;70.94;102064.47;7401641;19;1031;-66
2022/12/18 04:50:11;;;;;;;;;;;;;;;15.36;70.79;102080.31;7401426;19;992;-66
2022/12/18 04:52:40;;;;;;;;;;;;;;;15.37;70.85;102075.84;7401743;19;947;-66
2022/12/18 04:55:08;;;;;;;;;;;;;;;15.34;70.59;102055.53;7401328;19;1017;-66
2022/12/18 04:57:37;;;;;;;;;;;;;;;15.35;70.70;102077.72;7401334;19;1016;-65
2022/12/18 05:00:05;;;;;;;;;;;;;;;15.34;70.58;102083.97;7401675;19;986;-66
2022/12/18 05:02:34;;;;;;;;;;;;;;;15.32;70.70;102086.75;7401455;19;994;-66
2022/12/18 05:05:02;;;;;;;;;;;;;;;15.34;70.52;102097.31;7400881;19;1853;-66
2022/12/18 05:07:33;;;;;;;;;;;;;;;15.37;70.66;102098.00;7401049;19;988;-66
2022/12/18 05:10:01;;;;;;;;;;;;;;;15.37;70.59;102113.16;7401378;19;959;-66
2022/12/18 05:12:30;;;;;;;;;;;;;;;15.35;70.67;102109.72;7401361;19;986;-66
2022/12/18 05:14:58;;;;;;;;;;;;;;;15.34;70.50;102113.28;7400748;19;1018;-66
2022/12/18 05:17:26;;;;;;;;;;;;;;;15.33;70.52;102107.09;7400767;19;1001;-66
2022/12/18 05:19:55;;;;;;;;;;;;;;;15.31;70.77;102119.66;7400746;19;1035;-66
2022/12/18 05:22:24;;;;;;;;;;;;;;;15.31;70.68;102127.66;7400627;19;1063;-66
2022/12/18 05:24:55;;;;;;;;;;;;;;;15.28;70.72;102133.16;7400186;19;1845;-66
2022/12/18 05:27:23;;;;;;;;;;;;;;;15.29;70.43;102122.38;7400487;19;909;-66
2022/12/18 05:29:52;;;;;;;;;;;;;;;15.32;70.42;102127.56;7400309;19;1025;-66
2022/12/18 05:32:20;;;;;;;;;;;;;;;15.30;70.72;102132.13;7404612;19;989;-66
2022/12/18 05:34:48;;;;;;;;;;;;;;;15.34;70.38;102148.84;7407907;19;961;-66
2022/12/18 05:37:17;;;;;;;;;;;;;;;15.30;70.31;102126.78;7406545;19;1387;-66
2022/12/18 05:39:45;;;;;;;;;;;;;;;15.31;70.61;102151.63;7407585;19;1207;-66
2022/12/18 05:42:16;;;;;;;;;;;;;;;15.28;70.66;102150.00;7407983;19;964;-66
2022/12/18 05:44:45;;;;;;;;;;;;;;;15.33;70.54;102155.09;7407811;19;1857;-66
2022/12/18 05:47:14;;;;;;;;;;;;;;;15.28;70.38;102150.00;7407910;19;923;-66
2022/12/18 05:49:42;;;;;;;;;;;;;;;15.28;70.27;102150.00;7407356;19;985;-66
2022/12/18 05:52:10;;;;;;;;;;;;;;;15.27;70.35;102150.06;7407362;19;997;-66
2022/12/18 05:54:39;;;;;;;;;;;;;;;15.24;70.32;102155.53;7407265;19;973;-66
2022/12/18 05:57:07;;;;;;;;;;;;;;;15.25;70.69;102170.59;7407654;19;986;-66
2022/12/18 05:59:38;;;;;;;;;;;;;;;15.26;70.40;102180.31;7407070;19;1004;-66
2022/12/18 06:02:06;;;;;;;;;;;;;;;15.26;70.56;102188.31;7404580;19;1040;-66
2022/12/18 06:04:35;;;;;;;;;;;;;;;15.23;70.40;102177.81;7406945;19;1025;-66
2022/12/18 06:07:03;;;;;;;;;;;;;;;15.24;70.33;102171.53;7404185;19;1843;-66
2022/12/18 06:09:31;;;;;;;;;;;;;;;15.24;70.43;102176.84;7409280;19;1407;-66
2022/12/18 06:12:00;;;;;;;;;;;;;;;15.24;70.48;102198.19;7406641;19;1008;-66
2022/12/18 06:14:28;;;;;;;;;;;;;;;15.24;70.39;102203.50;7406533;19;980;-66
2022/12/18 06:16:59;;;;;;;;;;;;;;;15.26;70.19;102214.94;7406523;19;1027;-66
2022/12/18 06:19:27;;;;;;;;;;;;;;;15.25;70.51;102199.91;7406327;19;1064;-66
2022/12/18 06:21:58;;;;;;;;;;;;;;;15.24;70.22;102200.84;7406312;19;1008;-66
2022/12/18 06:24:26;;;;;;;;;;;;;;;15.24;70.23;102204.41;7406725;19;923;-66
2022/12/18 06:26:55;;;;;;;;;;;;;;;15.23;70.42;102212.47;7403956;19;1836;-66
2022/12/18 06:29:23;;;;;;;;;;;;;;;15.25;70.12;102210.56;7405811;19;1000;-66
2022/12/18 06:31:51;;;;;;;;;;;;;;;15.28;70.12;102226.44;7406015;19;1071;-66
2022/12/18 06:34:22;;;;;;;;;;;;;;;15.25;70.13;102216.75;7405950;19;1040;-66
2022/12/18 06:36:51;;;;;;;;;;;;;;;15.22;70.44;102216.94;7405166;19;1417;-66
2022/12/18 06:39:19;;;;;;;;;;;;;;;15.29;69.99;102244.13;7403630;19;1825;-66
2022/12/18 06:41:47;;;;;;;;;;;;;;;15.29;69.83;102223.66;7405688;19;976;-66
2022/12/18 06:44:16;;;;;;;;;;;;;;;15.24;70.22;102233.72;7402730;19;1067;-66
2022/12/18 06:46:44;;;;;;;;;;;;;;;15.26;70.01;102250.47;7404235;19;1861;-66
2022/12/18 06:49:12;;;;;;;;;;;;;;;15.23;70.05;102245.28;7405516;19;1036;-66
2022/12/18 06:51:43;;;;;;;;;;;;;;;15.25;70.36;102259.41;7405715;19;1012;-66
2022/12/18 06:54:11;;;;;;;;;;;;;;;15.21;70.02;102256.97;7403199;19;1462;-66
2022/12/18 06:56:40;;;;;;;;;;;;;;;15.22;70.37;102258.69;7405664;19;990;-66
2022/12/18 06:59:08;;;;;;;;;;;;;;;15.23;70.30;102271.09;7405130;19;1001;-66
2022/12/18 07:01:36;;;;;;;;;;;;;;;15.27;70.05;102267.31;7405064;19;1043;-66
2022/12/18 07:04:05;;;;;;;;;;;;;;;15.22;70.14;102288.00;7404994;19;1124;-66
2022/12/18 07:06:33;;;;;;;;;;;;;;;15.23;70.20;102276.41;7403365;19;1857;-65
2022/12/18 07:09:04;;;;;;;;;;;;;;;15.24;70.20;102283.44;7405127;19;998;-66
2022/12/18 07:11:34;;;;;;;;;;;;;;;15.21;70.28;102281.81;7404710;19;961;-66
2022/12/18 07:14:03;;;;;;;;;;;;;;;15.20;70.38;102297.88;7402429;19;1028;-66
2022/12/18 07:16:31;;;;;;;;;;;;;;;15.21;70.07;102296.94;7404537;19;997;-66
2022/12/18 07:18:59;;;;;;;;;;;;;;;15.21;70.07;102294.28;7404238;19;1080;-66
2022/12/18 07:21:28;;;;;;;;;;;;;;;15.23;70.08;102287.06;7404881;19;937;-66
2022/12/18 07:23:56;;;;;;;;;;;;;;;15.26;70.07;102308.22;7404208;19;996;-66
2022/12/18 07:26:27;;;;;;;;;;;;;;;15.29;70.13;102311.63;7403499;19;1861;-66
2022/12/18 07:28:57;;;;;;;;;;;;;;;15.28;70.05;102301.06;7404062;19;949;-66
2022/12/18 07:31:26;;;;;;;;;;;;;;;15.32;69.88;102321.28;7404073;19;1259;-66
2022/12/18 07:33:54;;;;;;;;;;;;;;;15.32;70.02;102321.28;7403864;19;989;-66
2022/12/18 07:36:23;;;;;;;;;;;;;;;15.34;69.92;102316.75;7403854;19;891;-66
2022/12/18 07:38:52;;;;;;;;;;;;;;;15.34;69.89;102326.53;7401763;19;1470;-66
2022/12/18 07:41:21;;;;;;;;;;;;;;;15.33;69.90;102331.00;7399994;19;1356;-66
2022/12/18 07:43:52;;;;;;;;;;;;;;;15.33;69.56;102341.66;7402489;19;1007;-66
2022/12/18 07:46:20;;;;;;;;;;;;;;;15.34;69.67;102340.75;7401681;19;1855;-66
2022/12/18 07:48:48;;;;;;;;;;;;;;;15.36;69.83;102348.63;7403396;19;1063;-66
2022/12/18 07:51:17;;;;;;;;;;;;;;;15.36;69.72;102353.97;7403782;19;962;-66
2022/12/18 07:53:45;;;;;;;;;;;;;;;15.38;69.68;102360.97;7402721;19;989;-66
2022/12/18 07:56:14;;;;;;;;;;;;;;;15.39;69.54;102352.03;7403211;19;1015;-66
2022/12/18 07:58:44;;;;;;;;;;;;;;;15.39;69.74;102362.69;7403559;19;931;-66
2022/12/18 08:01:15;;;;;;;;;;;;;;;15.40;69.82;102369.75;7403488;19;927;-66
2022/12/18 08:03:43;;;;;;;;;;;;;;;15.38;69.62;102360.09;7402847;19;965;-66
2022/12/18 08:06:12;;;;;;;;;;;;;;;15.39;69.55;102356.50;7402203;19;1875;-66
2022/12/18 08:08:41;;;;;;;;;;;;;;;15.42;69.22;102361.66;7403265;19;932;-66
2022/12/18 08:11:10;;;;;;;;;;;;;;;15.42;69.44;102367.00;7403234;19;990;-66
2022/12/18 08:13:38;;;;;;;;;;;;;;;15.39;69.42;102360.03;7402700;19;989;-66
2022/12/18 08:16:08;;;;;;;;;;;;;;;15.41;69.32;102366.16;7402543;19;1020;-66
2022/12/18 08:18:40;;;;;;;;;;;;;;;15.41;69.49;102366.16;7402346;19;981;-66
2022/12/18 08:21:11;;;;;;;;;;;;;;;15.39;69.63;102360.03;7402859;19;1095;-66
2022/12/18 08:23:40;;;;;;;;;;;;;;;15.41;69.38;102366.16;7402285;19;1160;-66
2022/12/18 08:26:09;;;;;;;;;;;;;;;15.38;69.50;102365.41;7402142;19;1868;-66
2022/12/18 08:28:37;;;;;;;;;;;;;;;15.41;69.51;102373.28;7402628;19;968;-66
2022/12/18 08:31:06;;;;;;;;;;;;;;;15.35;69.40;102369.09;7400088;19;1509;-66
2022/12/18 08:33:34;;;;;;;;;;;;;;;15.38;69.56;102368.97;7402467;19;927;-66
2022/12/18 08:36:06;;;;;;;;;;;;;;;15.39;69.31;102367.16;7401911;19;993;-66
2022/12/18 08:38:34;;;;;;;;;;;;;;;15.38;69.37;102366.31;7400236;19;1383;-66
2022/12/18 08:41:03;;;;;;;;;;;;;;;15.37;69.59;102383.22;7401821;19;1027;-66
2022/12/18 08:46:12;;;;;;;;;;;;;;;15.40;69.45;102396.44;7401289;19;1850;-66
2022/12/18 08:48:40;;;;;;;;;;;;;;;15.37;69.36;102383.22;7402383;19;1340;-67
2022/12/18 08:51:11;;;;;;;;;;;;;;;15.39;69.24;102367.16;7401557;19;1051;-66
2022/12/18 08:53:39;;;;;;;;;;;;;;;15.37;69.64;102380.56;7401848;19;932;-66
2022/12/18 08:56:08;;;;;;;;;;;;;;;15.37;69.60;102369.03;7401459;19;1059;-66
2022/12/18 08:58:37;;;;;;;;;;;;;;;15.35;69.63;102376.25;7401378;19;1008;-66
2022/12/18 09:01:06;;;;;;;;;;;;;;;15.36;69.39;102378.84;7401290;19;949;-66
2022/12/18 09:03:35;;;;;;;;;;;;;;;15.28;69.81;102386.34;7401071;19;1255;-66
2022/12/18 09:06:03;;;;;;;;;;;;;;;15.27;69.75;102387.25;7401397;19;1857;-65
2022/12/18 09:08:37;;;;;;;;;;;;;;;15.25;69.83;102392.66;7408655;19;1027;-66
2022/12/18 09:11:05;;;;;;;;;;;;;;;15.23;69.68;102394.53;7408895;19;1319;-66
2022/12/18 09:13:33;;;;;;;;;;;;;;;15.29;69.62;102393.38;7408653;19;1076;-66
2022/12/18 09:16:01;;;;;;;;;;;;;;;15.27;69.55;102384.59;7408955;19;972;-66
2022/12/18 09:18:30;;;;;;;;;;;;;;;15.23;69.79;102393.66;7408826;19;939;-65
2022/12/18 09:20:58;;;;;;;;;;;;;;;15.22;69.88;102391.94;7408441;19;996;-66
2022/12/18 09:23:26;;;;;;;;;;;;;;;15.23;69.70;102377.69;7408323;19;953;-66
2022/12/18 09:26:00;;;;;;;;;;;;;;;15.23;69.63;102399.84;7408118;19;1880;-66
2022/12/18 09:28:29;;;;;;;;;;;;;;;15.22;69.63;102375.94;7408202;19;1027;-66
2022/12/18 09:30:58;;;;;;;;;;;;;;;15.23;69.89;102391.88;7408051;19;1004;-66
2022/12/18 09:33:27;;;;;;;;;;;;;;;15.24;69.56;102390.06;7405028;19;1545;-66
2022/12/18 09:35:55;;;;;;;;;;;;;;;15.23;69.48;102388.34;7407963;19;1000;-66
2022/12/18 09:38:23;;;;;;;;;;;;;;;15.22;69.64;102397.25;7405425;19;1383;-66
2022/12/18 09:40:54;;;;;;;;;;;;;;;15.25;69.51;102392.66;7407895;19;1035;-66
2022/12/18 09:43:28;;;;;;;;;;;;;;;15.25;69.50;102387.31;7407603;19;1063;-66
2022/12/18 09:46:00;;;;;;;;;;;;;;;15.27;69.47;102384.59;7408103;19;943;-66
2022/12/18 09:48:31;;;;;;;;;;;;;;;15.24;69.66;102379.41;7407520;19;997;-66
2022/12/18 09:51:02;;;;;;;;;;;;;;;15.22;69.83;102376.81;7407764;19;923;-66
2022/12/18 09:53:34;;;;;;;;;;;;;;;15.20;69.73;102372.47;7407291;19;1007;-66
2022/12/18 09:56:03;;;;;;;;;;;;;;;15.21;69.68;102380.41;7407334;19;1063;-66
2022/12/18 09:58:35;;;;;;;;;;;;;;;15.20;69.79;102378.69;7404351;19;1481;-66
2022/12/18 10:01:04;;;;;;;;;;;;;;;15.23;69.86;102393.66;7406989;19;1082;-66
2022/12/18 10:03:32;;;;;;;;;;;;;;;15.19;69.42;102376.09;7406923;19;1072;-66
2022/12/18 10:06:04;;;;;;;;;;;;;;;15.22;69.49;102374.16;7404531;19;1455;-66
2022/12/18 10:08:40;;;;;;;;;;;;;;;15.20;69.53;102389.34;7406828;19;981;-66
2022/12/18 10:11:17;;;;;;;;;;;;;;;15.26;69.57;102385.50;7407203;19;935;-66
2022/12/18 10:13:52;;;;;;;;;;;;;;;15.22;69.31;102379.50;7406608;19;1068;-66
2022/12/18 10:16:22;;;;;;;;;;;;;;;15.18;69.78;102393.91;7406441;19;1055;-66
2022/12/18 10:19:02;;;;;;;;;;;;;;;15.20;69.58;102396.47;7405992;19;940;-66
2022/12/18 10:21:33;;;;;;;;;;;;;;;15.19;69.58;102384.94;7406458;19;989;-66
2022/12/18 10:24:07;;;;;;;;;;;;;;;15.18;69.71;102390.34;7406349;19;1009;-66
2022/12/18 10:26:35;;;;;;;;;;;;;;;15.19;69.62;102408.06;7406127;19;1854;-66
2022/12/18 10:29:07;;;;;;;;;;;;;;;15.15;69.78;102406.50;7406150;19;996;-66
2022/12/18 10:31:35;;;;;;;;;;;;;;;15.15;69.72;102407.34;7406217;19;998;-66
2022/12/18 10:34:03;;;;;;;;;;;;;;;15.13;69.76;102409.22;7403731;19;1412;-66
2022/12/18 10:36:32;;;;;;;;;;;;;;;15.15;69.42;102406.50;7405735;19;1469;-66
2022/12/18 10:39:16;;;;;;;;;;;;;;;15.18;69.51;102407.22;7403664;19;1216;-66
2022/12/18 10:41:44;;;;;;;;;;;;;;;15.16;69.48;102414.41;7405658;19;1052;-66
2022/12/18 10:44:19;;;;;;;;;;;;;;;15.18;69.48;102417.00;7406030;19;931;-66
2022/12/18 10:46:48;;;;;;;;;;;;;;;15.16;69.62;102421.53;7405434;19;1862;-66
2022/12/18 10:49:22;;;;;;;;;;;;;;;15.10;69.39;102436.88;7403430;19;1398;-66
2022/12/18 10:51:50;;;;;;;;;;;;;;;15.17;69.67;102420.59;7405474;19;996;-66
2022/12/18 10:54:20;;;;;;;;;;;;;;;15.17;69.48;102420.59;7405671;19;1018;-66
2022/12/18 10:56:48;;;;;;;;;;;;;;;15.15;69.23;102427.81;7405365;19;981;-66
2022/12/18 10:59:20;;;;;;;;;;;;;;;15.13;69.50;102430.53;7405089;19;1068;-66
2022/12/18 11:01:53;;;;;;;;;;;;;;;15.09;69.54;102428.94;7405468;19;1006;-66
2022/12/18 11:04:23;;;;;;;;;;;;;;;15.07;69.75;102445.00;7405347;19;972;-66
2022/12/18 11:06:59;;;;;;;;;;;;;;;15.08;69.80;102433.41;7404896;19;1853;-66
2022/12/18 11:09:28;;;;;;;;;;;;;;;15.09;69.75;102437.78;7404770;19;1020;-66
2022/12/18 11:11:58;;;;;;;;;;;;;;;15.05;69.49;102438.00;7404811;19;1027;-66
2022/12/18 11:14:31;;;;;;;;;;;;;;;15.09;69.76;102432.47;7404936;19;923;-66
2022/12/18 11:17:00;;;;;;;;;;;;;;;15.08;69.66;102430.75;7404590;19;1051;-66
2022/12/18 11:19:33;;;;;;;;;;;;;;;15.08;69.53;102438.75;7404453;19;988;-66
2022/12/18 11:22:02;;;;;;;;;;;;;;;15.07;69.25;102437.00;7404509;19;953;-66
2022/12/18 11:24:33;;;;;;;;;;;;;;;15.07;69.39;102439.66;7404410;19;1019;-66
2022/12/18 11:27:03;;;;;;;;;;;;;;;15.05;69.84;102428.22;7404141;19;1853;-66
2022/12/18 11:29:38;;;;;;;;;;;;;;;15.06;69.70;102435.28;7402728;19;1031;-66
2022/12/18 11:32:23;;;;;;;;;;;;;;;15.08;69.33;102454.72;7404147;19;956;-66
2022/12/18 11:34:54;;;;;;;;;;;;;;;15.08;69.71;102451.19;7404009;19;877;-66
2022/12/18 11:37:22;;;;;;;;;;;;;;;15.04;69.51;102452.25;7402822;19;1453;-66
2022/12/18 11:39:56;;;;;;;;;;;;;;;15.06;69.49;102453.94;7403675;19;1000;-66
2022/12/18 11:42:26;;;;;;;;;;;;;;;15.02;69.33;102438.13;7404160;19;921;-66
2022/12/18 11:45:01;;;;;;;;;;;;;;;15.05;69.61;102460.19;7404009;19;1001;-66
2022/12/18 11:47:33;;;;;;;;;;;;;;;15.07;69.64;102455.66;7402923;19;1857;-66
2022/12/18 11:50:03;;;;;;;;;;;;;;;15.06;69.49;102443.28;7403634;19;905;-65
2022/12/18 11:52:35;;;;;;;;;;;;;;;15.06;69.42;102461.94;7403231;19;1063;-66
2022/12/18 11:55:11;;;;;;;;;;;;;;;15.08;69.74;102449.41;7403604;19;979;-66
2022/12/18 11:57:45;;;;;;;;;;;;;;;15.04;69.46;102463.78;7403681;19;1003;-66
2022/12/18 12:00:18;;;;;;;;;;;;;;;15.04;69.52;102461.13;7403103;19;961;-66
2022/12/18 12:02:59;;;;;;;;;;;;;;;15.03;69.61;102455.88;7402831;19;1052;-66
2022/12/18 12:05:34;;;;;;;;;;;;;;;15.05;69.67;102476.16;7402845;19;1001;-66
2022/12/18 12:08:10;;;;;;;;;;;;;;;15.02;69.33;102460.34;7401881;19;1879;-66
2022/12/18 12:10:43;;;;;;;;;;;;;;;15.00;69.36;102451.53;7402796;19;1005;-66
2022/12/18 12:13:19;;;;;;;;;;;;;;;14.98;69.20;102453.41;7403152;19;927;-66
2022/12/18 12:15:54;;;;;;;;;;;;;;;15.00;69.26;102477.28;7402674;19;952;-66
2022/12/18 12:18:26;;;;;;;;;;;;;;;15.00;69.35;102462.19;7402440;19;985;-66
2022/12/18 12:21:00;;;;;;;;;;;;;;;15.00;69.55;102462.19;7402509;19;1125;-66
2022/12/18 12:23:36;;;;;;;;;;;;;;;14.99;69.43;102464.94;7402449;19;933;-66
2022/12/18 12:26:07;;;;;;;;;;;;;;;15.01;69.43;102469.25;7402976;19;956;-66
2022/12/18 12:28:47;;;;;;;;;;;;;;;14.99;69.51;102454.28;7400928;19;1844;-66
2022/12/18 12:31:22;;;;;;;;;;;;;;;14.96;69.23;102455.28;7402071;19;1056;-66
2022/12/18 12:33:55;;;;;;;;;;;;;;;14.99;69.37;102464.94;7402546;19;989;-66
2022/12/18 12:36:29;;;;;;;;;;;;;;;15.01;69.67;102457.72;7402024;19;1060;-66
2022/12/18 12:38:59;;;;;;;;;;;;;;;15.00;69.39;102467.53;7400651;19;1149;-66
2022/12/18 12:44:12;;;;;;;;;;;;;;;15.01;69.70;102469.25;7402633;19;754;-66
2022/12/18 12:46:44;;;;;;;;;;;;;;;14.98;69.68;102458.75;7402080;19;939;-66
2022/12/18 12:49:15;;;;;;;;;;;;;;;15.02;69.32;102475.44;7400555;19;1817;-66
2022/12/18 12:51:45;;;;;;;;;;;;;;;14.99;69.30;102470.25;7401897;19;924;-66
2022/12/18 12:54:17;;;;;;;;;;;;;;;14.99;69.26;102471.13;7402698;19;1794;-66
2022/12/18 12:56:50;;;;;;;;;;;;;;;14.99;69.72;102468.44;7401475;19;1064;-66
2022/12/18 12:59:24;;;;;;;;;;;;;;;14.97;69.53;102472.97;7401850;19;1000;-66
2022/12/18 13:02:00;;;;;;;;;;;;;;;15.04;69.08;102493.09;7401693;19;927;-66
2022/12/18 13:04:34;;;;;;;;;;;;;;;14.99;69.19;102481.75;7401659;19;937;-66
2022/12/18 13:07:06;;;;;;;;;;;;;;;14.95;69.17;102485.50;7401524;19;1005;-66
2022/12/18 13:09:34;;;;;;;;;;;;;;;14.96;69.47;102487.25;7401644;19;1016;-66
2022/12/18 13:14:47;;;;;;;;;;;;;;;14.97;69.47;102514.75;7402251;19;675;-66